OETR

Turaif Domestic Airport

Saudi Arabia
OETR 151100Z 1512/1618 30008G18KT CAVOK
Issued Valid From Valid To
Aug-15 @ 11:00 UTC
(2 hours ago)
Aug-15 @ 12:00 UTC
(41 minutes ago)
Aug-16 @ 18:00 UTC
(-1 days ago)
Aug-15 @ 12:00 to Aug-16 @ 18:00
OETR 151100Z 1512/1618 30008G18KT CAVOK
Wind Visibility Clouds Conditions
300° at 8 knots
 Gusting to 18 knots
10,000+ meters
  • No significant clouds
OETR 151100Z 1512/1618 30008G18KT CAVOK
Issued Aug-15 @ 11:00 UTC
(2 hours ago)
Valid From Aug-15 @ 12:00 UTC
(41 minutes ago)
Valid To Aug-16 @ 18:00 UTC
(-1 days ago)
Aug-15 @ 12:00 - Aug-16 @ 18:00
Wind Visibility
300° at 8 knots
 Gusting to 18 knots
10,000+ meters
Clouds
  • No significant clouds
Conditions